MQT105 EDDL-EDDB
Flight info
| Callsign | MQT105 |
|---|---|
| Flight time | 0h 55m |
| Altitude | 35000 |
| Route | MEVEL4T/23L MEVEL L179 MISRI Z851 ROBEG DCT BATEL T207 OGBER OGBER1L |
| Aircraft | A319/M-SDE3FGHIRWY/LB1 |
Departure
| Time | 2026-05-04 19:07 |
|---|---|
| Airport | Düsseldorf Airport (EDDL) |
Arrival
| Time | 2026-05-04 20:02 |
|---|---|
| Airport | Berlin Brandenburg Airport (EDDB) |
| Time | Latitude | Longitude | Altitude | Speed | Heading |
|---|---|---|---|---|---|
| 2026-05-04 17:58 | 51.27708 | 6.75920 | 130 ft | 0 kts | 91° |
| 2026-05-04 18:31 | 51.27707 | 6.75931 | 130 ft | 4 kts | 91° |
| 2026-05-04 18:32 | 51.27706 | 6.75993 | 130 ft | 7 kts | 91° |
| 2026-05-04 18:32 | 51.27740 | 6.76043 | 129 ft | 9 kts | 2° |
| 2026-05-04 18:32 | 51.27815 | 6.76041 | 125 ft | 12 kts | 360° |
| 2026-05-04 18:32 | 51.27905 | 6.76045 | 128 ft | 15 kts | 5° |
| 2026-05-04 18:33 | 51.27995 | 6.76064 | 126 ft | 11 kts | 8° |
| 2026-05-04 18:33 | 51.28046 | 6.76057 | 128 ft | 2 kts | 352° |
| 2026-05-04 18:33 | 51.28047 | 6.76057 | 128 ft | 0 kts | 352° |
| 2026-05-04 18:34 | 51.28055 | 6.76055 | 128 ft | 4 kts | 352° |
| 2026-05-04 18:34 | 51.28103 | 6.76033 | 125 ft | 10 kts | 349° |
| 2026-05-04 18:34 | 51.28174 | 6.76113 | 126 ft | 18 kts | 54° |
| 2026-05-04 18:34 | 51.28255 | 6.76291 | 124 ft | 21 kts | 52° |
| 2026-05-04 18:35 | 51.28354 | 6.76496 | 124 ft | 25 kts | 52° |
| 2026-05-04 18:35 | 51.28460 | 6.76715 | 122 ft | 26 kts | 52° |
| 2026-05-04 18:35 | 51.28572 | 6.76942 | 127 ft | 27 kts | 52° |
| 2026-05-04 18:35 | 51.28694 | 6.77195 | 127 ft | 29 kts | 52° |
| 2026-05-04 18:36 | 51.28813 | 6.77442 | 129 ft | 31 kts | 52° |
| 2026-05-04 18:36 | 51.28939 | 6.77721 | 127 ft | 27 kts | 53° |
| 2026-05-04 18:36 | 51.29049 | 6.77955 | 126 ft | 22 kts | 52° |
| 2026-05-04 18:36 | 51.29114 | 6.78084 | 132 ft | 0 kts | 53° |
| 2026-05-04 18:38 | 51.29123 | 6.78105 | 133 ft | 5 kts | 53° |
| 2026-05-04 18:38 | 51.29144 | 6.78150 | 134 ft | 5 kts | 53° |
| 2026-05-04 18:39 | 51.29161 | 6.78185 | 135 ft | 3 kts | 53° |
| 2026-05-04 18:39 | 51.29171 | 6.78207 | 136 ft | 2 kts | 53° |
| 2026-05-04 18:39 | 51.29184 | 6.78236 | 137 ft | 8 kts | 54° |
| 2026-05-04 18:39 | 51.29216 | 6.78301 | 140 ft | 7 kts | 51° |
| 2026-05-04 18:40 | 51.29239 | 6.78347 | 142 ft | 5 kts | 51° |
| 2026-05-04 18:40 | 51.29254 | 6.78377 | 143 ft | 2 kts | 51° |
| 2026-05-04 18:40 | 51.29258 | 6.78384 | 144 ft | 0 kts | 51° |
| 2026-05-04 18:41 | 51.29261 | 6.78392 | 144 ft | 4 kts | 53° |
| 2026-05-04 18:42 | 51.29292 | 6.78461 | 147 ft | 8 kts | 54° |
| 2026-05-04 18:42 | 51.29320 | 6.78518 | 149 ft | 0 kts | 46° |
| 2026-05-04 18:47 | 51.29331 | 6.78536 | 150 ft | 4 kts | 47° |
| 2026-05-04 18:48 | 51.29350 | 6.78561 | 151 ft | 3 kts | 31° |
| 2026-05-04 18:48 | 51.29368 | 6.78571 | 152 ft | 3 kts | 15° |
| 2026-05-04 18:48 | 51.29389 | 6.78574 | 152 ft | 0 kts | 1° |
| 2026-05-04 18:59 | 51.29390 | 6.78574 | 152 ft | 0 kts | 1° |
| 2026-05-04 18:59 | 51.29403 | 6.78571 | 152 ft | 3 kts | 353° |
| 2026-05-04 19:00 | 51.29441 | 6.78568 | 152 ft | 5 kts | 356° |
| 2026-05-04 19:00 | 51.29447 | 6.78567 | 152 ft | 0 kts | 356° |
| 2026-05-04 19:05 | 51.29451 | 6.78567 | 152 ft | 4 kts | 356° |
| 2026-05-04 19:05 | 51.29492 | 6.78563 | 152 ft | 8 kts | 355° |
| 2026-05-04 19:05 | 51.29546 | 6.78535 | 152 ft | 10 kts | 317° |
| 2026-05-04 19:05 | 51.29522 | 6.78470 | 150 ft | 10 kts | 222° |
| 2026-05-04 19:06 | 51.29409 | 6.78241 | 144 ft | 55 kts | 232° |
| 2026-05-04 19:06 | 51.29076 | 6.77565 | 128 ft | 108 kts | 232° |
| 2026-05-04 19:06 | 51.28507 | 6.76373 | 143 ft | 154 kts | 228° |
| 2026-05-04 19:06 | 51.27861 | 6.75004 | 668 ft | 152 kts | 229° |
| 2026-05-04 19:07 | 51.27251 | 6.73644 | 1271 ft | 151 kts | 232° |
| 2026-05-04 19:07 | 51.26814 | 6.72045 | 1637 ft | 169 kts | 261° |
| 2026-05-04 19:07 | 51.27158 | 6.70151 | 2014 ft | 195 kts | 306° |
| 2026-05-04 19:07 | 51.28316 | 6.68902 | 2352 ft | 205 kts | 340° |
| 2026-05-04 19:08 | 51.29729 | 6.68578 | 2740 ft | 219 kts | 2° |
| 2026-05-04 19:08 | 51.31359 | 6.68760 | 3197 ft | 244 kts | 4° |
| 2026-05-04 19:08 | 51.33107 | 6.68959 | 3731 ft | 265 kts | 4° |
| 2026-05-04 19:08 | 51.34969 | 6.69166 | 4631 ft | 272 kts | 4° |
| 2026-05-04 19:09 | 51.36874 | 6.69375 | 5603 ft | 276 kts | 4° |
| 2026-05-04 19:09 | 51.38807 | 6.69579 | 6565 ft | 280 kts | 3° |
| 2026-05-04 19:09 | 51.40759 | 6.69677 | 7510 ft | 282 kts | 1° |
| 2026-05-04 19:09 | 51.42725 | 6.69685 | 8429 ft | 285 kts | 0° |
| 2026-05-04 19:10 | 51.44729 | 6.69658 | 9351 ft | 288 kts | 0° |
| 2026-05-04 19:10 | 51.46745 | 6.69629 | 10208 ft | 293 kts | 1° |
| 2026-05-04 19:10 | 51.48857 | 6.69614 | 10503 ft | 315 kts | 0° |
| 2026-05-04 19:10 | 51.51100 | 6.69609 | 10700 ft | 338 kts | 1° |
| 2026-05-04 19:11 | 51.53498 | 6.69608 | 11133 ft | 349 kts | 0° |
| 2026-05-04 19:11 | 51.55943 | 6.69611 | 11751 ft | 354 kts | 1° |
| 2026-05-04 19:11 | 51.58417 | 6.69890 | 12377 ft | 358 kts | 11° |
| 2026-05-04 19:11 | 51.60811 | 6.71049 | 13006 ft | 361 kts | 24° |
| 2026-05-04 19:12 | 51.62991 | 6.73064 | 13685 ft | 363 kts | 37° |
| 2026-05-04 19:12 | 51.66371 | 6.79091 | 14819 ft | 369 kts | 55° |
| 2026-05-04 19:12 | 51.67915 | 6.82457 | 15249 ft | 376 kts | 55° |
| 2026-05-04 19:13 | 51.69476 | 6.85864 | 15763 ft | 381 kts | 55° |
| 2026-05-04 19:13 | 51.71057 | 6.89315 | 16302 ft | 385 kts | 55° |
| 2026-05-04 19:13 | 51.72658 | 6.92802 | 16860 ft | 388 kts | 54° |
| 2026-05-04 19:13 | 51.74313 | 6.96275 | 17400 ft | 393 kts | 53° |
| 2026-05-04 19:14 | 51.75999 | 6.99770 | 17953 ft | 396 kts | 53° |
| 2026-05-04 19:14 | 51.77702 | 7.03299 | 18461 ft | 400 kts | 53° |
| 2026-05-04 19:14 | 51.79396 | 7.06817 | 18927 ft | 404 kts | 53° |
| 2026-05-04 19:14 | 51.81164 | 7.10500 | 19415 ft | 408 kts | 53° |
| 2026-05-04 19:15 | 51.82867 | 7.14059 | 19875 ft | 411 kts | 53° |
| 2026-05-04 19:15 | 51.84620 | 7.17733 | 20378 ft | 414 kts | 53° |
| 2026-05-04 19:15 | 51.86391 | 7.21453 | 20841 ft | 418 kts | 53° |
| 2026-05-04 19:15 | 51.88169 | 7.25196 | 21284 ft | 422 kts | 53° |
| 2026-05-04 19:16 | 51.89963 | 7.28977 | 21704 ft | 425 kts | 53° |
| 2026-05-04 19:16 | 51.91771 | 7.32796 | 22117 ft | 429 kts | 53° |
| 2026-05-04 19:16 | 51.93593 | 7.36652 | 22458 ft | 434 kts | 53° |
| 2026-05-04 19:16 | 51.95424 | 7.40551 | 22833 ft | 438 kts | 55° |
| 2026-05-04 19:17 | 51.96875 | 7.44811 | 23205 ft | 438 kts | 71° |
| 2026-05-04 19:17 | 51.97661 | 7.49582 | 23585 ft | 439 kts | 80° |
| 2026-05-04 19:17 | 51.98306 | 7.54433 | 23874 ft | 442 kts | 80° |
| 2026-05-04 19:17 | 51.98943 | 7.59317 | 24031 ft | 444 kts | 80° |
| 2026-05-04 19:18 | 51.99621 | 7.64219 | 24377 ft | 447 kts | 78° |
| 2026-05-04 19:18 | 52.00410 | 7.69113 | 24707 ft | 450 kts | 76° |
| 2026-05-04 19:18 | 52.01283 | 7.74005 | 25019 ft | 453 kts | 75° |
| 2026-05-04 19:18 | 52.02199 | 7.78915 | 25330 ft | 456 kts | 75° |
| 2026-05-04 19:19 | 52.03122 | 7.83858 | 25656 ft | 459 kts | 75° |
| 2026-05-04 19:19 | 52.04032 | 7.88838 | 25943 ft | 462 kts | 76° |
| 2026-05-04 19:19 | 52.04925 | 7.93873 | 26221 ft | 465 kts | 76° |
| 2026-05-04 19:19 | 52.05803 | 7.98942 | 26524 ft | 468 kts | 76° |
| 2026-05-04 19:20 | 52.06661 | 8.03978 | 26819 ft | 470 kts | 77° |
| 2026-05-04 19:20 | 52.07530 | 8.09110 | 27118 ft | 473 kts | 77° |
| 2026-05-04 19:20 | 52.08405 | 8.14279 | 27410 ft | 475 kts | 77° |
| 2026-05-04 19:20 | 52.09286 | 8.19488 | 27698 ft | 478 kts | 77° |
| 2026-05-04 19:21 | 52.10168 | 8.24704 | 27987 ft | 481 kts | 77° |
| 2026-05-04 19:21 | 52.11057 | 8.29962 | 28274 ft | 483 kts | 76° |
| 2026-05-04 19:21 | 52.11953 | 8.35253 | 28549 ft | 486 kts | 76° |
| 2026-05-04 19:21 | 52.12851 | 8.40561 | 28785 ft | 489 kts | 76° |
| 2026-05-04 19:22 | 52.13756 | 8.45919 | 28954 ft | 493 kts | 76° |
| 2026-05-04 19:22 | 52.15551 | 8.56639 | 28974 ft | 494 kts | 76° |
| 2026-05-04 19:23 | 52.17346 | 8.67443 | 28976 ft | 494 kts | 76° |
| 2026-05-04 19:23 | 52.19131 | 8.78249 | 28977 ft | 494 kts | 77° |
| 2026-05-04 19:24 | 52.20898 | 8.89041 | 28970 ft | 491 kts | 77° |
| 2026-05-04 19:24 | 52.22645 | 8.99794 | 28975 ft | 493 kts | 76° |
| 2026-05-04 19:25 | 52.24397 | 9.10597 | 28974 ft | 493 kts | 77° |
| 2026-05-04 19:25 | 52.26134 | 9.21364 | 28975 ft | 493 kts | 77° |
| 2026-05-04 19:26 | 52.27870 | 9.32197 | 28973 ft | 493 kts | 77° |
| 2026-05-04 19:26 | 52.29589 | 9.43049 | 28973 ft | 494 kts | 77° |
| 2026-05-04 19:27 | 52.31306 | 9.53922 | 28978 ft | 494 kts | 77° |
| 2026-05-04 19:27 | 52.33004 | 9.64726 | 28975 ft | 494 kts | 77° |
| 2026-05-04 19:28 | 52.34695 | 9.75603 | 28975 ft | 494 kts | 77° |
| 2026-05-04 19:28 | 52.36377 | 9.86475 | 28975 ft | 493 kts | 77° |
| 2026-05-04 19:29 | 52.38047 | 9.97334 | 28960 ft | 492 kts | 77° |
| 2026-05-04 19:29 | 52.39703 | 10.08219 | 28973 ft | 492 kts | 77° |
| 2026-05-04 19:30 | 52.41351 | 10.19098 | 28970 ft | 492 kts | 77° |
| 2026-05-04 19:30 | 52.42981 | 10.29909 | 28971 ft | 492 kts | 77° |
| 2026-05-04 19:31 | 52.44615 | 10.40802 | 28994 ft | 492 kts | 78° |
| 2026-05-04 19:31 | 52.46236 | 10.51712 | 28980 ft | 492 kts | 77° |
| 2026-05-04 19:31 | 52.47043 | 10.57171 | 28688 ft | 493 kts | 77° |
| 2026-05-04 19:32 | 52.47852 | 10.62668 | 28412 ft | 497 kts | 77° |
| 2026-05-04 19:32 | 52.48661 | 10.68180 | 28141 ft | 497 kts | 78° |
| 2026-05-04 19:32 | 52.49469 | 10.73689 | 27868 ft | 495 kts | 78° |
| 2026-05-04 19:32 | 52.50273 | 10.79175 | 27596 ft | 493 kts | 78° |
| 2026-05-04 19:33 | 52.51068 | 10.84633 | 27341 ft | 491 kts | 78° |
| 2026-05-04 19:33 | 52.51846 | 10.90010 | 27082 ft | 490 kts | 78° |
| 2026-05-04 19:33 | 52.52625 | 10.95431 | 26819 ft | 488 kts | 78° |
| 2026-05-04 19:33 | 52.53396 | 11.00827 | 26223 ft | 483 kts | 78° |
| 2026-05-04 19:34 | 52.54160 | 11.06194 | 25463 ft | 481 kts | 78° |
| 2026-05-04 19:34 | 52.54687 | 11.11552 | 25092 ft | 473 kts | 87° |
| 2026-05-04 19:34 | 52.54834 | 11.16939 | 24920 ft | 471 kts | 90° |
| 2026-05-04 19:34 | 52.54957 | 11.22300 | 24961 ft | 471 kts | 90° |
| 2026-05-04 19:35 | 52.55089 | 11.27680 | 24961 ft | 471 kts | 90° |
| 2026-05-04 19:35 | 52.55221 | 11.33062 | 24961 ft | 471 kts | 90° |
| 2026-05-04 19:35 | 52.55349 | 11.38437 | 24962 ft | 471 kts | 90° |
| 2026-05-04 19:35 | 52.55471 | 11.43818 | 24961 ft | 471 kts | 90° |
| 2026-05-04 19:36 | 52.55587 | 11.49113 | 24962 ft | 471 kts | 90° |
| 2026-05-04 19:36 | 52.55698 | 11.54477 | 24961 ft | 471 kts | 90° |
| 2026-05-04 19:36 | 52.55803 | 11.59851 | 24781 ft | 470 kts | 90° |
| 2026-05-04 19:36 | 52.55905 | 11.65240 | 23699 ft | 476 kts | 90° |
| 2026-05-04 19:37 | 52.56006 | 11.70702 | 22675 ft | 477 kts | 90° |
| 2026-05-04 19:37 | 52.56105 | 11.76120 | 21853 ft | 472 kts | 90° |
| 2026-05-04 19:37 | 52.56204 | 11.81486 | 21093 ft | 466 kts | 90° |
| 2026-05-04 19:37 | 52.56299 | 11.86765 | 20356 ft | 459 kts | 90° |
| 2026-05-04 19:38 | 52.56392 | 11.91973 | 19627 ft | 453 kts | 90° |
| 2026-05-04 19:38 | 52.56484 | 11.97058 | 18911 ft | 447 kts | 90° |
| 2026-05-04 19:38 | 52.56569 | 12.02123 | 18212 ft | 441 kts | 90° |
| 2026-05-04 19:38 | 52.56649 | 12.07115 | 17429 ft | 435 kts | 90° |
| 2026-05-04 19:39 | 52.56709 | 12.12059 | 16774 ft | 428 kts | 91° |
| 2026-05-04 19:39 | 52.56724 | 12.16887 | 16420 ft | 415 kts | 91° |
| 2026-05-04 19:39 | 52.56717 | 12.21570 | 16049 ft | 406 kts | 91° |
| 2026-05-04 19:39 | 52.56955 | 12.26157 | 15681 ft | 402 kts | 82° |
| 2026-05-04 19:40 | 52.57378 | 12.30685 | 15306 ft | 399 kts | 82° |
| 2026-05-04 19:40 | 52.57810 | 12.35177 | 14937 ft | 396 kts | 82° |
| 2026-05-04 19:40 | 52.58246 | 12.39631 | 14569 ft | 394 kts | 81° |
| 2026-05-04 19:40 | 52.58678 | 12.44060 | 14210 ft | 391 kts | 81° |
| 2026-05-04 19:41 | 52.59097 | 12.48400 | 13858 ft | 388 kts | 81° |
| 2026-05-04 19:41 | 52.59516 | 12.52782 | 13474 ft | 388 kts | 82° |
| 2026-05-04 19:41 | 52.59931 | 12.57155 | 13110 ft | 387 kts | 82° |
| 2026-05-04 19:41 | 52.60346 | 12.61518 | 12754 ft | 385 kts | 82° |
| 2026-05-04 19:42 | 52.60486 | 12.65895 | 12400 ft | 382 kts | 95° |
| 2026-05-04 19:42 | 52.59976 | 12.70144 | 12045 ft | 378 kts | 110° |
| 2026-05-04 19:42 | 52.58860 | 12.74019 | 11735 ft | 373 kts | 125° |
| 2026-05-04 19:42 | 52.57235 | 12.77305 | 11466 ft | 368 kts | 139° |
| 2026-05-04 19:43 | 52.55254 | 12.79916 | 11184 ft | 364 kts | 146° |
| 2026-05-04 19:43 | 52.53243 | 12.82347 | 10917 ft | 362 kts | 146° |
| 2026-05-04 19:43 | 52.51256 | 12.84753 | 10721 ft | 348 kts | 146° |
| 2026-05-04 19:43 | 52.49353 | 12.87063 | 10595 ft | 332 kts | 146° |
| 2026-05-04 19:44 | 52.47534 | 12.89269 | 10481 ft | 318 kts | 146° |
| 2026-05-04 19:44 | 52.45789 | 12.91381 | 10352 ft | 306 kts | 146° |
| 2026-05-04 19:44 | 52.44104 | 12.93415 | 10151 ft | 298 kts | 147° |
| 2026-05-04 19:44 | 52.42444 | 12.95415 | 10035 ft | 294 kts | 147° |
| 2026-05-04 19:45 | 52.40822 | 12.97363 | 9928 ft | 293 kts | 147° |
| 2026-05-04 19:45 | 52.39135 | 12.99095 | 9803 ft | 280 kts | 159° |
| 2026-05-04 19:45 | 52.37323 | 12.99997 | 9651 ft | 266 kts | 175° |
| 2026-05-04 19:45 | 52.35533 | 12.99977 | 9519 ft | 252 kts | 196° |
| 2026-05-04 19:46 | 52.33983 | 12.98809 | 9257 ft | 243 kts | 221° |
| 2026-05-04 19:46 | 52.32930 | 12.96726 | 9055 ft | 237 kts | 244° |
| 2026-05-04 19:46 | 52.32487 | 12.94153 | 8876 ft | 236 kts | 262° |
| 2026-05-04 19:46 | 52.32102 | 12.91550 | 8724 ft | 236 kts | 248° |
| 2026-05-04 19:47 | 52.31478 | 12.89064 | 8597 ft | 236 kts | 248° |
| 2026-05-04 19:47 | 52.30864 | 12.86622 | 8466 ft | 236 kts | 248° |
| 2026-05-04 19:47 | 52.30246 | 12.84142 | 8333 ft | 236 kts | 248° |
| 2026-05-04 19:47 | 52.29636 | 12.81662 | 8199 ft | 236 kts | 248° |
| 2026-05-04 19:48 | 52.29026 | 12.79184 | 8072 ft | 236 kts | 248° |
| 2026-05-04 19:48 | 52.28420 | 12.76728 | 7953 ft | 235 kts | 248° |
| 2026-05-04 19:48 | 52.27808 | 12.74244 | 7809 ft | 235 kts | 248° |
| 2026-05-04 19:48 | 52.27198 | 12.71769 | 7687 ft | 235 kts | 248° |
| 2026-05-04 19:49 | 52.26591 | 12.69304 | 7532 ft | 234 kts | 248° |
| 2026-05-04 19:49 | 52.25985 | 12.66880 | 7391 ft | 234 kts | 245° |
| 2026-05-04 19:49 | 52.24954 | 12.64883 | 7244 ft | 234 kts | 213° |
| 2026-05-04 19:49 | 52.23400 | 12.64133 | 7096 ft | 238 kts | 180° |
| 2026-05-04 19:50 | 52.21789 | 12.64814 | 6942 ft | 242 kts | 160° |
| 2026-05-04 19:50 | 52.20226 | 12.65847 | 6776 ft | 243 kts | 159° |
| 2026-05-04 19:50 | 52.18855 | 12.67426 | 6618 ft | 247 kts | 130° |
| 2026-05-04 19:50 | 52.18189 | 12.70001 | 6456 ft | 251 kts | 96° |
| 2026-05-04 19:51 | 52.18478 | 12.72756 | 6302 ft | 247 kts | 64° |
| 2026-05-04 19:51 | 52.19233 | 12.75219 | 6144 ft | 239 kts | 66° |
| 2026-05-04 19:51 | 52.19846 | 12.77659 | 6002 ft | 235 kts | 69° |
| 2026-05-04 19:51 | 52.20417 | 12.80143 | 5871 ft | 233 kts | 70° |
| 2026-05-04 19:52 | 52.20976 | 12.82604 | 5737 ft | 232 kts | 70° |
| 2026-05-04 19:52 | 52.21543 | 12.85060 | 5618 ft | 231 kts | 70° |
| 2026-05-04 19:52 | 52.22117 | 12.87506 | 5483 ft | 230 kts | 69° |
| 2026-05-04 19:52 | 52.22697 | 12.89946 | 5355 ft | 229 kts | 69° |
| 2026-05-04 19:53 | 52.23275 | 12.92352 | 5225 ft | 228 kts | 69° |
| 2026-05-04 19:53 | 52.23856 | 12.94756 | 5110 ft | 227 kts | 69° |
| 2026-05-04 19:53 | 52.24428 | 12.97112 | 5021 ft | 226 kts | 69° |
| 2026-05-04 19:53 | 52.25005 | 12.99489 | 4902 ft | 225 kts | 69° |
| 2026-05-04 19:54 | 52.25581 | 13.01863 | 4795 ft | 224 kts | 69° |
| 2026-05-04 19:54 | 52.26153 | 13.04229 | 4692 ft | 224 kts | 69° |
| 2026-05-04 19:54 | 52.26726 | 13.06595 | 4600 ft | 223 kts | 69° |
| 2026-05-04 19:54 | 52.27275 | 13.08861 | 4503 ft | 223 kts | 69° |
| 2026-05-04 19:55 | 52.27839 | 13.11197 | 4372 ft | 217 kts | 69° |
| 2026-05-04 19:55 | 52.28375 | 13.13421 | 4297 ft | 203 kts | 69° |
| 2026-05-04 19:55 | 52.28869 | 13.15470 | 4169 ft | 190 kts | 69° |
| 2026-05-04 19:55 | 52.29322 | 13.17395 | 4054 ft | 175 kts | 69° |
| 2026-05-04 19:56 | 52.29750 | 13.19187 | 3868 ft | 164 kts | 69° |
| 2026-05-04 19:56 | 52.30148 | 13.20847 | 3668 ft | 149 kts | 69° |
| 2026-05-04 19:56 | 52.30516 | 13.22378 | 3478 ft | 143 kts | 69° |
| 2026-05-04 19:56 | 52.30878 | 13.23880 | 3303 ft | 141 kts | 68° |
| 2026-05-04 19:57 | 52.31235 | 13.25366 | 3119 ft | 140 kts | 68° |
| 2026-05-04 19:57 | 52.31588 | 13.26837 | 2934 ft | 138 kts | 68° |
| 2026-05-04 19:57 | 52.31939 | 13.28296 | 2767 ft | 136 kts | 68° |
| 2026-05-04 19:57 | 52.32271 | 13.29694 | 2592 ft | 131 kts | 68° |
| 2026-05-04 19:58 | 52.32597 | 13.31075 | 2406 ft | 130 kts | 66° |
| 2026-05-04 19:58 | 52.32942 | 13.32458 | 2249 ft | 133 kts | 68° |
| 2026-05-04 19:58 | 52.33275 | 13.33868 | 2108 ft | 132 kts | 67° |
| 2026-05-04 19:58 | 52.33603 | 13.35234 | 1893 ft | 131 kts | 67° |
| 2026-05-04 19:59 | 52.33946 | 13.36634 | 1725 ft | 133 kts | 65° |
| 2026-05-04 19:59 | 52.34296 | 13.38056 | 1524 ft | 135 kts | 67° |
| 2026-05-04 19:59 | 52.34619 | 13.39470 | 1349 ft | 130 kts | 67° |
| 2026-05-04 19:59 | 52.34944 | 13.40838 | 1119 ft | 129 kts | 67° |
| 2026-05-04 20:00 | 52.35261 | 13.42183 | 967 ft | 128 kts | 66° |
| 2026-05-04 20:00 | 52.35594 | 13.43547 | 851 ft | 130 kts | 66° |
| 2026-05-04 20:00 | 52.35924 | 13.44928 | 698 ft | 129 kts | 68° |
| 2026-05-04 20:00 | 52.36250 | 13.46272 | 494 ft | 125 kts | 69° |
| 2026-05-04 20:01 | 52.36564 | 13.47609 | 314 ft | 127 kts | 68° |
| 2026-05-04 20:01 | 52.36879 | 13.48942 | 174 ft | 125 kts | 69° |
| 2026-05-04 20:01 | 52.37164 | 13.50107 | 155 ft | 89 kts | 69° |
| 2026-05-04 20:01 | 52.37360 | 13.50981 | 155 ft | 80 kts | 70° |
| 2026-05-04 20:02 | 52.37463 | 13.51504 | 155 ft | 29 kts | 104° |
| 2026-05-04 20:02 | 52.37432 | 13.51794 | 155 ft | 19 kts | 98° |
| 2026-05-04 20:02 | 52.37385 | 13.52005 | 155 ft | 21 kts | 139° |
| 2026-05-04 20:02 | 52.37255 | 13.51982 | 155 ft | 23 kts | 246° |
| 2026-05-04 20:03 | 52.37196 | 13.51722 | 155 ft | 26 kts | 250° |
| 2026-05-04 20:03 | 52.37132 | 13.51435 | 155 ft | 28 kts | 250° |
| 2026-05-04 20:03 | 52.37062 | 13.51125 | 155 ft | 30 kts | 249° |
| 2026-05-04 20:03 | 52.36979 | 13.50796 | 155 ft | 33 kts | 247° |
| 2026-05-04 20:04 | 52.36893 | 13.50426 | 155 ft | 36 kts | 251° |
| 2026-05-04 20:04 | 52.36825 | 13.50157 | 155 ft | 8 kts | 202° |
| 2026-05-04 20:04 | 52.36766 | 13.50188 | 155 ft | 10 kts | 154° |
| 2026-05-04 20:04 | 52.36737 | 13.50175 | 155 ft | 1 kts | 249° |
| 2026-05-04 20:05 | 52.36724 | 13.50167 | 155 ft | 3 kts | 197° |
| 2026-05-04 20:05 | 52.36689 | 13.50168 | 155 ft | 6 kts | 150° |
| 2026-05-04 20:05 | 52.36635 | 13.50206 | 155 ft | 11 kts | 160° |
| 2026-05-04 20:05 | 52.36551 | 13.50253 | 155 ft | 15 kts | 161° |
| 2026-05-04 20:06 | 52.36553 | 13.50318 | 155 ft | 8 kts | 90° |
| 2026-05-04 20:06 | 52.36560 | 13.50406 | 155 ft | 9 kts | 62° |
| 2026-05-04 20:06 | 52.36569 | 13.50437 | 155 ft | 4 kts | 66° |
| 2026-05-04 20:06 | 52.36578 | 13.50472 | 155 ft | 0 kts | 68° |
| 2026-05-04 20:07 | 52.36578 | 13.50474 | 155 ft | 0 kts | 69° |